sensor_id;sensor_type;location;lat;lon;timestamp;pressure;altitude;pressure_sealevel;temperature;humidity
58471;BME280;44258;51.288;12.068;2023-03-25T00:00:47;99371.97;;;9.87;63.90
58471;BME280;44258;51.288;12.068;2023-03-25T00:03:15;99376.06;;;9.92;64.06
58471;BME280;44258;51.288;12.068;2023-03-25T00:05:42;99370.91;;;10.02;63.34
58471;BME280;44258;51.288;12.068;2023-03-25T00:08:09;99373.81;;;10.12;63.22
58471;BME280;44258;51.288;12.068;2023-03-25T00:10:37;99372.31;;;10.21;62.80
58471;BME280;44258;51.288;12.068;2023-03-25T00:13:03;99372.75;;;10.27;62.61
58471;BME280;44258;51.288;12.068;2023-03-25T00:15:32;99375.00;;;10.33;62.49
58471;BME280;44258;51.288;12.068;2023-03-25T00:17:59;99372.41;;;10.32;62.51
58471;BME280;44258;51.288;12.068;2023-03-25T00:20:27;99376.72;;;10.34;62.59
58471;BME280;44258;51.288;12.068;2023-03-25T00:22:54;99386.47;;;10.48;61.86
58471;BME280;44258;51.288;12.068;2023-03-25T00:25:20;99382.84;;;10.49;62.01
58471;BME280;44258;51.288;12.068;2023-03-25T00:27:49;99370.16;;;10.51;61.64
58471;BME280;44258;51.288;12.068;2023-03-25T00:30:17;99362.19;;;10.50;61.72
58471;BME280;44258;51.288;12.068;2023-03-25T00:32:45;99369.06;;;10.54;61.54
58471;BME280;44258;51.288;12.068;2023-03-25T00:35:17;99358.41;;;10.52;61.42
58471;BME280;44258;51.288;12.068;2023-03-25T00:37:45;99367.22;;;10.54;61.31
58471;BME280;44258;51.288;12.068;2023-03-25T00:40:12;99362.19;;;10.50;61.39
58471;BME280;44258;51.288;12.068;2023-03-25T00:42:39;99362.09;;;10.51;61.36
58471;BME280;44258;51.288;12.068;2023-03-25T00:45:10;99363.59;;;10.43;61.45
58471;BME280;44258;51.288;12.068;2023-03-25T00:47:36;99355.09;;;10.36;61.56
58471;BME280;44258;51.288;12.068;2023-03-25T00:50:04;99356.72;;;10.39;61.49
58471;BME280;44258;51.288;12.068;2023-03-25T00:52:44;99351.47;;;10.37;61.60
58471;BME280;44258;51.288;12.068;2023-03-25T00:55:14;99353.47;;;10.46;61.33
58471;BME280;44258;51.288;12.068;2023-03-25T00:57:41;99355.84;;;10.51;61.03
58471;BME280;44258;51.288;12.068;2023-03-25T01:00:11;99344.56;;;10.46;61.25
58471;BME280;44258;51.288;12.068;2023-03-25T01:02:38;99345.84;;;10.53;60.78
58471;BME280;44258;51.288;12.068;2023-03-25T01:05:06;99355.84;;;10.38;61.15
58471;BME280;44258;51.288;12.068;2023-03-25T01:07:34;99348.03;;;10.22;61.64
58471;BME280;44258;51.288;12.068;2023-03-25T01:10:03;99347.34;;;10.44;61.00
58471;BME280;44258;51.288;12.068;2023-03-25T01:12:36;99339.53;;;10.41;60.76
58471;BME280;44258;51.288;12.068;2023-03-25T01:15:03;99335.03;;;10.29;60.52
58471;BME280;44258;51.288;12.068;2023-03-25T01:17:33;99330.41;;;10.18;60.69
58471;BME280;44258;51.288;12.068;2023-03-25T01:20:06;99321.78;;;10.26;60.58
58471;BME280;44258;51.288;12.068;2023-03-25T01:22:34;99325.34;;;10.26;60.45
58471;BME280;44258;51.288;12.068;2023-03-25T01:25:03;99339.09;;;10.22;60.51
58471;BME280;44258;51.288;12.068;2023-03-25T01:27:30;99326.66;;;10.21;60.39
58471;BME280;44258;51.288;12.068;2023-03-25T01:29:56;99322.03;;;10.23;60.37
58471;BME280;44258;51.288;12.068;2023-03-25T01:32:23;99312.69;;;10.28;60.23
58471;BME280;44258;51.288;12.068;2023-03-25T01:34:50;99316.22;;;10.29;60.43
58471;BME280;44258;51.288;12.068;2023-03-25T01:37:17;99312.56;;;10.17;60.64
58471;BME280;44258;51.288;12.068;2023-03-25T01:39:43;99306.25;;;10.18;60.38
58471;BME280;44258;51.288;12.068;2023-03-25T01:42:12;99301.91;;;10.15;60.40
58471;BME280;44258;51.288;12.068;2023-03-25T01:45:12;99302.81;;;10.16;60.43
58471;BME280;44258;51.288;12.068;2023-03-25T01:47:39;99298.28;;;10.17;60.23
58471;BME280;44258;51.288;12.068;2023-03-25T01:50:07;99293.66;;;10.19;60.52
58471;BME280;44258;51.288;12.068;2023-03-25T01:52:41;99295.91;;;10.25;59.96
58471;BME280;44258;51.288;12.068;2023-03-25T01:55:10;99292.22;;;10.26;59.76
58471;BME280;44258;51.288;12.068;2023-03-25T01:57:40;99282.38;;;10.26;59.67
58471;BME280;44258;51.288;12.068;2023-03-25T02:00:12;99284.63;;;10.20;59.55
58471;BME280;44258;51.288;12.068;2023-03-25T02:02:40;99281.63;;;10.24;59.42
58471;BME280;44258;51.288;12.068;2023-03-25T02:05:11;99281.31;;;10.16;59.31
58471;BME280;44258;51.288;12.068;2023-03-25T02:07:43;99276.69;;;10.18;59.52
58471;BME280;44258;51.288;12.068;2023-03-25T02:10:11;99270.75;;;10.26;59.05
58471;BME280;44258;51.288;12.068;2023-03-25T02:12:40;99267.00;;;10.28;58.82
58471;BME280;44258;51.288;12.068;2023-03-25T02:15:16;99267.75;;;10.30;59.14
58471;BME280;44258;51.288;12.068;2023-03-25T02:18:00;99261.94;;;10.37;59.26
58471;BME280;44258;51.288;12.068;2023-03-25T02:24:03;99272.00;;;10.46;59.12
58471;BME280;44258;51.288;12.068;2023-03-25T02:27:14;99259.75;;;10.42;58.51
58471;BME280;44258;51.288;12.068;2023-03-25T02:30:07;99271.94;;;10.34;58.74
58471;BME280;44258;51.288;12.068;2023-03-25T02:35:52;99279.78;;;10.25;59.04
58471;BME280;44258;51.288;12.068;2023-03-25T02:38:34;99286.25;;;10.22;58.84
58471;BME280;44258;51.288;12.068;2023-03-25T02:41:13;99286.25;;;10.22;58.84
58471;BME280;44258;51.288;12.068;2023-03-25T02:43:45;99272.06;;;10.20;58.78
58471;BME280;44258;51.288;12.068;2023-03-25T02:46:16;99274.09;;;10.17;58.70
58471;BME280;44258;51.288;12.068;2023-03-25T02:48:49;99268.97;;;10.01;59.29
58471;BME280;44258;51.288;12.068;2023-03-25T02:51:21;99268.97;;;10.01;59.52
58471;BME280;44258;51.288;12.068;2023-03-25T02:53:52;99264.56;;;10.00;59.35
58471;BME280;44258;51.288;12.068;2023-03-25T02:56:24;99273.38;;;10.02;59.36
58471;BME280;44258;51.288;12.068;2023-03-25T02:58:53;99264.66;;;9.98;59.35
58471;BME280;44258;51.288;12.068;2023-03-25T03:01:21;99268.22;;;9.99;59.44
58471;BME280;44258;51.288;12.068;2023-03-25T03:03:51;99265.84;;;9.94;59.38
58471;BME280;44258;51.288;12.068;2023-03-25T03:06:18;99262.53;;;9.90;59.52
58471;BME280;44258;51.288;12.068;2023-03-25T03:09:03;99260.16;;;9.86;59.87
58471;BME280;44258;51.288;12.068;2023-03-25T03:11:40;99252.13;;;9.86;59.75
58471;BME280;44258;51.288;12.068;2023-03-25T03:14:28;99257.59;;;9.84;59.99
58471;BME280;44258;51.288;12.068;2023-03-25T03:17:04;99257.25;;;9.76;60.07
58471;BME280;44258;51.288;12.068;2023-03-25T03:19:37;99253.50;;;9.66;60.60
58471;BME280;44258;51.288;12.068;2023-03-25T03:22:22;99256.81;;;9.57;61.08
58471;BME280;44258;51.288;12.068;2023-03-25T03:25:01;99256.72;;;9.45;61.65
58471;BME280;44258;51.288;12.068;2023-03-25T03:27:32;99264.34;;;9.39;61.97
58471;BME280;44258;51.288;12.068;2023-03-25T03:30:06;99267.34;;;9.47;61.79
58471;BME280;44258;51.288;12.068;2023-03-25T03:32:39;99268.44;;;9.57;61.57
58471;BME280;44258;51.288;12.068;2023-03-25T03:35:12;99266.28;;;9.62;61.23
58471;BME280;44258;51.288;12.068;2023-03-25T03:37:42;99270.25;;;9.69;60.70
58471;BME280;44258;51.288;12.068;2023-03-25T03:40:15;99268.44;;;9.70;59.87
58471;BME280;44258;51.288;12.068;2023-03-25T03:42:45;99271.97;;;9.70;59.41
58471;BME280;44258;51.288;12.068;2023-03-25T03:45:20;99288.31;;;9.80;58.86
58471;BME280;44258;51.288;12.068;2023-03-25T03:47:50;99290.97;;;9.80;59.04
58471;BME280;44258;51.288;12.068;2023-03-25T03:50:22;99285.38;;;9.70;59.06
58471;BME280;44258;51.288;12.068;2023-03-25T03:52:53;99290.44;;;9.75;58.83
58471;BME280;44258;51.288;12.068;2023-03-25T03:55:27;99285.69;;;9.91;58.08
58471;BME280;44258;51.288;12.068;2023-03-25T03:57:58;99292.72;;;9.94;57.75
58471;BME280;44258;51.288;12.068;2023-03-25T04:03:06;99304.31;;;9.94;57.60
58471;BME280;44258;51.288;12.068;2023-03-25T04:05:47;99303.13;;;9.99;57.72
58471;BME280;44258;51.288;12.068;2023-03-25T04:08:21;99302.56;;;9.93;57.59
58471;BME280;44258;51.288;12.068;2023-03-25T04:10:55;99307.94;;;9.55;57.91
58471;BME280;44258;51.288;12.068;2023-03-25T04:13:29;99300.06;;;9.52;57.45
58471;BME280;44258;51.288;12.068;2023-03-25T04:15:58;99297.41;;;9.65;57.76
58471;BME280;44258;51.288;12.068;2023-03-25T04:18:28;99307.53;;;9.74;57.25
58471;BME280;44258;51.288;12.068;2023-03-25T04:20:57;99305.59;;;9.89;56.40
58471;BME280;44258;51.288;12.068;2023-03-25T04:23:25;99310.00;;;9.90;56.63
58471;BME280;44258;51.288;12.068;2023-03-25T04:25:56;99304.94;;;9.98;56.41
58471;BME280;44258;51.288;12.068;2023-03-25T04:28:37;99311.06;;;10.00;56.43
58471;BME280;44258;51.288;12.068;2023-03-25T04:31:13;99315.16;;;9.80;57.19
58471;BME280;44258;51.288;12.068;2023-03-25T04:33:42;99321.59;;;9.90;56.66
58471;BME280;44258;51.288;12.068;2023-03-25T04:36:27;99320.84;;;9.88;56.83
58471;BME280;44258;51.288;12.068;2023-03-25T04:38:54;99325.78;;;9.94;56.75
58471;BME280;44258;51.288;12.068;2023-03-25T04:41:22;99328.53;;;9.54;57.65
58471;BME280;44258;51.288;12.068;2023-03-25T04:43:50;99344.78;;;9.79;57.07
58471;BME280;44258;51.288;12.068;2023-03-25T04:46:17;99330.41;;;9.80;56.86
58471;BME280;44258;51.288;12.068;2023-03-25T04:48:45;99336.72;;;9.79;56.61
58471;BME280;44258;51.288;12.068;2023-03-25T04:51:13;99330.38;;;9.67;57.25
58471;BME280;44258;51.288;12.068;2023-03-25T04:53:41;99336.50;;;9.69;56.93
58471;BME280;44258;51.288;12.068;2023-03-25T04:56:15;99339.84;;;9.72;56.91
58471;BME280;44258;51.288;12.068;2023-03-25T04:58:45;99343.84;;;9.80;56.59
58471;BME280;44258;51.288;12.068;2023-03-25T05:01:19;99332.84;;;9.70;56.62
58471;BME280;44258;51.288;12.068;2023-03-25T05:03:47;99332.63;;;9.60;56.51
58471;BME280;44258;51.288;12.068;2023-03-25T05:06:15;99341.56;;;9.86;55.90
58471;BME280;44258;51.288;12.068;2023-03-25T05:08:42;99335.66;;;9.81;55.64
58471;BME280;44258;51.288;12.068;2023-03-25T05:11:08;99327.66;;;9.54;55.71
58471;BME280;44258;51.288;12.068;2023-03-25T05:13:47;99323.81;;;9.58;55.84
58471;BME280;44258;51.288;12.068;2023-03-25T05:16:30;99328.94;;;9.48;55.56
58471;BME280;44258;51.288;12.068;2023-03-25T05:18:57;99325.75;;;9.56;55.66
58471;BME280;44258;51.288;12.068;2023-03-25T05:21:32;99319.72;;;9.52;55.77
58471;BME280;44258;51.288;12.068;2023-03-25T05:24:00;99328.66;;;9.53;55.27
58471;BME280;44258;51.288;12.068;2023-03-25T05:26:27;99327.47;;;9.30;55.51
58471;BME280;44258;51.288;12.068;2023-03-25T05:29:07;99321.16;;;9.31;55.52
58471;BME280;44258;51.288;12.068;2023-03-25T05:31:35;99327.88;;;9.24;54.92
58471;BME280;44258;51.288;12.068;2023-03-25T05:34:01;99327.22;;;9.20;54.91
58471;BME280;44258;51.288;12.068;2023-03-25T05:36:33;99326.94;;;9.25;54.66
58471;BME280;44258;51.288;12.068;2023-03-25T05:39:00;99331.41;;;9.39;54.50
58471;BME280;44258;51.288;12.068;2023-03-25T05:41:28;99324.31;;;9.10;54.75
58471;BME280;44258;51.288;12.068;2023-03-25T05:43:58;99325.81;;;9.14;54.70
58471;BME280;44258;51.288;12.068;2023-03-25T05:46:27;99326.28;;;9.34;54.46
58471;BME280;44258;51.288;12.068;2023-03-25T05:48:54;99323.38;;;9.39;54.36
58471;BME280;44258;51.288;12.068;2023-03-25T05:51:28;99344.41;;;9.45;54.64
58471;BME280;44258;51.288;12.068;2023-03-25T05:53:58;99341.84;;;9.56;54.41
58471;BME280;44258;51.288;12.068;2023-03-25T05:56:26;99349.38;;;9.64;54.00
58471;BME280;44258;51.288;12.068;2023-03-25T05:58:52;99353.78;;;9.65;53.83
58471;BME280;44258;51.288;12.068;2023-03-25T06:01:20;99358.13;;;9.40;54.52
58471;BME280;44258;51.288;12.068;2023-03-25T06:03:48;99356.59;;;9.63;54.03
58471;BME280;44258;51.288;12.068;2023-03-25T06:06:16;99354.41;;;9.56;54.06
58471;BME280;44258;51.288;12.068;2023-03-25T06:08:48;99360.03;;;9.65;53.94
58471;BME280;44258;51.288;12.068;2023-03-25T06:11:16;99365.06;;;9.57;54.14
58471;BME280;44258;51.288;12.068;2023-03-25T06:13:44;99369.03;;;9.77;54.11
58471;BME280;44258;51.288;12.068;2023-03-25T06:16:16;99368.19;;;9.89;54.03
58471;BME280;44258;51.288;12.068;2023-03-25T06:18:45;99375.63;;;10.11;53.61
58471;BME280;44258;51.288;12.068;2023-03-25T06:21:17;99364.69;;;10.27;53.12
58471;BME280;44258;51.288;12.068;2023-03-25T06:23:44;99370.47;;;10.34;53.10
58471;BME280;44258;51.288;12.068;2023-03-25T06:26:10;99375.22;;;10.30;53.03
58471;BME280;44258;51.288;12.068;2023-03-25T06:28:38;99381.56;;;10.29;53.04
58471;BME280;44258;51.288;12.068;2023-03-25T06:31:11;99382.97;;;10.22;53.17
58471;BME280;44258;51.288;12.068;2023-03-25T06:33:37;99384.34;;;10.15;53.48
58471;BME280;44258;51.288;12.068;2023-03-25T06:36:05;99382.72;;;10.25;53.35
58471;BME280;44258;51.288;12.068;2023-03-25T06:38:37;99390.69;;;10.40;53.36
58471;BME280;44258;51.288;12.068;2023-03-25T06:41:05;99389.16;;;10.48;53.39
58471;BME280;44258;51.288;12.068;2023-03-25T06:43:40;99396.50;;;10.33;53.52
58471;BME280;44258;51.288;12.068;2023-03-25T06:46:06;99388.44;;;10.21;53.62
58471;BME280;44258;51.288;12.068;2023-03-25T06:48:33;99392.59;;;9.99;53.71
58471;BME280;44258;51.288;12.068;2023-03-25T06:51:01;99398.09;;;10.23;53.61
58471;BME280;44258;51.288;12.068;2023-03-25T06:53:28;99400.25;;;10.31;53.43
58471;BME280;44258;51.288;12.068;2023-03-25T06:55:57;99391.13;;;10.33;53.40
58471;BME280;44258;51.288;12.068;2023-03-25T06:58:24;99405.72;;;10.29;53.89
58471;BME280;44258;51.288;12.068;2023-03-25T07:01:03;99406.72;;;10.28;53.88
58471;BME280;44258;51.288;12.068;2023-03-25T07:03:31;99415.72;;;10.27;53.58
58471;BME280;44258;51.288;12.068;2023-03-25T07:06:05;99398.56;;;9.77;54.40
58471;BME280;44258;51.288;12.068;2023-03-25T07:08:32;99413.09;;;9.87;54.81
58471;BME280;44258;51.288;12.068;2023-03-25T07:11:06;99407.44;;;9.92;55.18
58471;BME280;44258;51.288;12.068;2023-03-25T07:13:33;99412.47;;;9.97;55.08
58471;BME280;44258;51.288;12.068;2023-03-25T07:16:00;99411.72;;;9.82;55.74
58471;BME280;44258;51.288;12.068;2023-03-25T07:18:27;99415.03;;;9.85;55.64
58471;BME280;44258;51.288;12.068;2023-03-25T07:21:08;99409.72;;;9.71;56.37
58471;BME280;44258;51.288;12.068;2023-03-25T07:23:37;99411.88;;;9.66;57.11
58471;BME280;44258;51.288;12.068;2023-03-25T07:26:11;99405.09;;;9.73;57.53
58471;BME280;44258;51.288;12.068;2023-03-25T07:28:39;99401.81;;;9.82;57.33
58471;BME280;44258;51.288;12.068;2023-03-25T07:31:11;99409.97;;;9.81;57.03
58471;BME280;44258;51.288;12.068;2023-03-25T07:33:39;99411.63;;;9.56;58.16
58471;BME280;44258;51.288;12.068;2023-03-25T07:36:07;99409.53;;;9.74;57.83
58471;BME280;44258;51.288;12.068;2023-03-25T07:38:41;99407.97;;;9.97;57.15
58471;BME280;44258;51.288;12.068;2023-03-25T07:41:09;99399.25;;;9.93;57.51
58471;BME280;44258;51.288;12.068;2023-03-25T07:43:37;99400.78;;;9.98;57.07
58471;BME280;44258;51.288;12.068;2023-03-25T07:46:09;99391.56;;;10.02;57.00
58471;BME280;44258;51.288;12.068;2023-03-25T07:48:36;99402.50;;;10.11;57.07
58471;BME280;44258;51.288;12.068;2023-03-25T07:51:03;99393.06;;;10.06;57.42
58471;BME280;44258;51.288;12.068;2023-03-25T07:53:30;99388.28;;;9.84;57.61
58471;BME280;44258;51.288;12.068;2023-03-25T07:55:58;99407.53;;;10.03;57.47
58471;BME280;44258;51.288;12.068;2023-03-25T07:58:24;99403.75;;;9.80;57.91
58471;BME280;44258;51.288;12.068;2023-03-25T08:00:55;99409.31;;;9.77;58.36
58471;BME280;44258;51.288;12.068;2023-03-25T08:03:24;99404.00;;;9.90;58.19
58471;BME280;44258;51.288;12.068;2023-03-25T08:05:52;99413.38;;;10.10;57.78
58471;BME280;44258;51.288;12.068;2023-03-25T08:08:18;99417.13;;;10.20;57.39
58471;BME280;44258;51.288;12.068;2023-03-25T08:10:45;99411.09;;;10.29;57.14
58471;BME280;44258;51.288;12.068;2023-03-25T08:13:19;99417.88;;;10.22;57.08
58471;BME280;44258;51.288;12.068;2023-03-25T08:15:45;99407.84;;;9.99;58.13
58471;BME280;44258;51.288;12.068;2023-03-25T08:18:16;99416.91;;;9.98;57.67
58471;BME280;44258;51.288;12.068;2023-03-25T08:20:47;99417.09;;;10.07;57.89
58471;BME280;44258;51.288;12.068;2023-03-25T08:23:14;99412.09;;;10.28;57.29
58471;BME280;44258;51.288;12.068;2023-03-25T08:25:45;99424.53;;;10.04;57.32
58471;BME280;44258;51.288;12.068;2023-03-25T08:28:20;99422.38;;;10.09;57.81
58471;BME280;44258;51.288;12.068;2023-03-25T08:30:47;99427.09;;;10.05;57.71
58471;BME280;44258;51.288;12.068;2023-03-25T08:33:15;99418.38;;;9.89;57.87
58471;BME280;44258;51.288;12.068;2023-03-25T08:35:42;99417.50;;;9.88;58.18
58471;BME280;44258;51.288;12.068;2023-03-25T08:38:09;99420.72;;;9.81;58.26
58471;BME280;44258;51.288;12.068;2023-03-25T08:40:45;99415.59;;;10.03;57.70
58471;BME280;44258;51.288;12.068;2023-03-25T08:43:12;99413.25;;;10.11;57.97
58471;BME280;44258;51.288;12.068;2023-03-25T08:45:38;99413.03;;;10.27;57.75
58471;BME280;44258;51.288;12.068;2023-03-25T08:48:05;99411.44;;;10.38;57.31
58471;BME280;44258;51.288;12.068;2023-03-25T08:50:37;99406.72;;;10.41;57.41
58471;BME280;44258;51.288;12.068;2023-03-25T08:53:04;99406.91;;;10.89;56.75
58471;BME280;44258;51.288;12.068;2023-03-25T08:55:31;99397.75;;;10.92;55.69
58471;BME280;44258;51.288;12.068;2023-03-25T08:58:01;99411.16;;;11.05;55.19
58471;BME280;44258;51.288;12.068;2023-03-25T09:00:28;99404.88;;;11.41;54.67
58471;BME280;44258;51.288;12.068;2023-03-25T09:02:55;99402.47;;;11.49;53.10
58471;BME280;44258;51.288;12.068;2023-03-25T09:05:23;99393.88;;;11.68;52.52
58471;BME280;44258;51.288;12.068;2023-03-25T09:07:56;99403.41;;;11.97;51.45
58471;BME280;44258;51.288;12.068;2023-03-25T09:10:22;99403.22;;;12.11;51.69
58471;BME280;44258;51.288;12.068;2023-03-25T09:12:49;99402.28;;;11.88;50.62
58471;BME280;44258;51.288;12.068;2023-03-25T09:15:20;99403.09;;;11.77;50.48
58471;BME280;44258;51.288;12.068;2023-03-25T09:17:47;99403.03;;;11.66;50.73
58471;BME280;44258;51.288;12.068;2023-03-25T09:20:17;99401.16;;;11.90;50.90
58471;BME280;44258;51.288;12.068;2023-03-25T09:22:44;99394.03;;;11.78;51.48
58471;BME280;44258;51.288;12.068;2023-03-25T09:25:13;99404.03;;;11.65;50.97
58471;BME280;44258;51.288;12.068;2023-03-25T09:27:39;99414.41;;;11.34;50.91
58471;BME280;44258;51.288;12.068;2023-03-25T09:30:11;99414.03;;;11.14;51.02
58471;BME280;44258;51.288;12.068;2023-03-25T09:32:38;99413.78;;;11.18;50.99
58471;BME280;44258;51.288;12.068;2023-03-25T09:35:05;99402.81;;;11.21;50.43
58471;BME280;44258;51.288;12.068;2023-03-25T09:37:34;99403.31;;;11.26;50.38
58471;BME280;44258;51.288;12.068;2023-03-25T09:40:02;99395.78;;;11.31;50.73
58471;BME280;44258;51.288;12.068;2023-03-25T09:42:36;99401.66;;;11.60;50.36
58471;BME280;44258;51.288;12.068;2023-03-25T09:45:16;99403.78;;;11.68;50.11
58471;BME280;44258;51.288;12.068;2023-03-25T09:47:53;99402.53;;;11.96;49.46
58471;BME280;44258;51.288;12.068;2023-03-25T09:50:23;99401.22;;;12.02;48.68
58471;BME280;44258;51.288;12.068;2023-03-25T09:52:53;99397.16;;;11.96;47.51
58471;BME280;44258;51.288;12.068;2023-03-25T09:55:24;99397.75;;;12.24;48.24
58471;BME280;44258;51.288;12.068;2023-03-25T09:57:57;99389.69;;;12.46;47.57
58471;BME280;44258;51.288;12.068;2023-03-25T10:00:26;99397.66;;;12.59;47.51
58471;BME280;44258;51.288;12.068;2023-03-25T10:03:00;99394.44;;;12.31;47.03
58471;BME280;44258;51.288;12.068;2023-03-25T10:05:50;99404.69;;;12.15;47.08
58471;BME280;44258;51.288;12.068;2023-03-25T10:08:26;99400.22;;;12.38;46.53
58471;BME280;44258;51.288;12.068;2023-03-25T10:11:04;99414.03;;;12.22;46.58
58471;BME280;44258;51.288;12.068;2023-03-25T10:13:39;99397.16;;;11.96;46.65
58471;BME280;44258;51.288;12.068;2023-03-25T10:16:19;99398.16;;;11.95;47.18
58471;BME280;44258;51.288;12.068;2023-03-25T10:18:59;99403.75;;;11.92;47.49
58471;BME280;44258;51.288;12.068;2023-03-25T10:21:36;99408.50;;;11.88;47.93
58471;BME280;44258;51.288;12.068;2023-03-25T10:24:15;99405.00;;;11.99;48.01
58471;BME280;44258;51.288;12.068;2023-03-25T10:26:46;99410.47;;;11.86;48.74
58471;BME280;44258;51.288;12.068;2023-03-25T10:29:17;99405.50;;;12.04;48.04
58471;BME280;44258;51.288;12.068;2023-03-25T10:31:55;99398.63;;;12.00;48.10
58471;BME280;44258;51.288;12.068;2023-03-25T10:34:31;99392.34;;;11.88;46.65
58471;BME280;44258;51.288;12.068;2023-03-25T10:37:00;99398.81;;;12.10;47.67
58471;BME280;44258;51.288;12.068;2023-03-25T10:39:30;99398.56;;;12.13;46.78
58471;BME280;44258;51.288;12.068;2023-03-25T10:42:03;99399.72;;;12.22;46.24
58471;BME280;44258;51.288;12.068;2023-03-25T10:44:40;99391.63;;;12.33;46.04
58471;BME280;44258;51.288;12.068;2023-03-25T10:47:11;99398.16;;;12.53;46.77
58471;BME280;44258;51.288;12.068;2023-03-25T10:49:41;99398.16;;;12.53;46.35
58471;BME280;44258;51.288;12.068;2023-03-25T10:52:12;99392.50;;;12.45;46.98
58471;BME280;44258;51.288;12.068;2023-03-25T10:54:41;99398.13;;;12.30;46.45
58471;BME280;44258;51.288;12.068;2023-03-25T10:57:16;99391.25;;;12.26;46.63
58471;BME280;44258;51.288;12.068;2023-03-25T10:59:54;99385.53;;;12.42;46.35
58471;BME280;44258;51.288;12.068;2023-03-25T11:02:23;99392.09;;;12.27;47.05
58471;BME280;44258;51.288;12.068;2023-03-25T11:05:02;99382.53;;;12.11;46.07
58471;BME280;44258;51.288;12.068;2023-03-25T11:07:32;99393.50;;;11.97;46.91
58471;BME280;44258;51.288;12.068;2023-03-25T11:10:20;99381.34;;;11.91;47.39
58471;BME280;44258;51.288;12.068;2023-03-25T11:12:50;99390.19;;;11.93;47.42
58471;BME280;44258;51.288;12.068;2023-03-25T11:15:20;99393.81;;;11.92;47.38
58471;BME280;44258;51.288;12.068;2023-03-25T11:17:59;99389.06;;;11.96;48.02
58471;BME280;44258;51.288;12.068;2023-03-25T11:20:29;99373.00;;;12.30;47.36
58471;BME280;44258;51.288;12.068;2023-03-25T11:23:21;99370.91;;;12.33;47.57
58471;BME280;44258;51.288;12.068;2023-03-25T11:26:11;99367.25;;;12.46;47.33
58471;BME280;44258;51.288;12.068;2023-03-25T11:28:47;99370.31;;;12.64;45.82
58471;BME280;44258;51.288;12.068;2023-03-25T11:31:17;99359.19;;;12.68;45.14
58471;BME280;44258;51.288;12.068;2023-03-25T11:33:46;99350.22;;;12.57;45.36
58471;BME280;44258;51.288;12.068;2023-03-25T11:36:26;99348.84;;;12.73;45.52
58471;BME280;44258;51.288;12.068;2023-03-25T11:38:59;99344.19;;;12.87;45.79
58471;BME280;44258;51.288;12.068;2023-03-25T11:41:33;99339.41;;;12.79;44.76
58471;BME280;44258;51.288;12.068;2023-03-25T11:44:02;99340.75;;;12.85;45.17
58471;BME280;44258;51.288;12.068;2023-03-25T11:46:31;99342.00;;;12.81;45.39
58471;BME280;44258;51.288;12.068;2023-03-25T11:49:07;99346.91;;;12.64;44.92
58471;BME280;44258;51.288;12.068;2023-03-25T11:51:37;99357.91;;;12.27;45.98
58471;BME280;44258;51.288;12.068;2023-03-25T11:54:06;99358.06;;;11.90;48.78
58471;BME280;44258;51.288;12.068;2023-03-25T11:56:36;99346.56;;;11.88;50.79
58471;BME280;44258;51.288;12.068;2023-03-25T11:59:08;99341.06;;;11.90;51.81
58471;BME280;44258;51.288;12.068;2023-03-25T12:01:45;99355.31;;;12.03;50.65
58471;BME280;44258;51.288;12.068;2023-03-25T12:04:14;99364.03;;;11.71;53.28
58471;BME280;44258;51.288;12.068;2023-03-25T12:06:58;99346.75;;;11.63;54.69
58471;BME280;44258;51.288;12.068;2023-03-25T12:09:30;99332.66;;;11.70;54.67
58471;BME280;44258;51.288;12.068;2023-03-25T12:12:21;99333.81;;;11.90;53.68
58471;BME280;44258;51.288;12.068;2023-03-25T12:15:04;99318.47;;;12.26;52.94
58471;BME280;44258;51.288;12.068;2023-03-25T12:18:02;99314.78;;;12.61;52.48
58471;BME280;44258;51.288;12.068;2023-03-25T12:20:49;99306.53;;;12.85;50.91
58471;BME280;44258;51.288;12.068;2023-03-25T12:23:29;99299.00;;;13.00;50.40
58471;BME280;44258;51.288;12.068;2023-03-25T12:26:06;99295.97;;;13.37;49.53
58471;BME280;44258;51.288;12.068;2023-03-25T12:28:48;99290.41;;;13.50;48.74
58471;BME280;44258;51.288;12.068;2023-03-25T12:31:34;99284.06;;;13.40;47.79
58471;BME280;44258;51.288;12.068;2023-03-25T12:34:16;99271.72;;;13.26;46.57
58471;BME280;44258;51.288;12.068;2023-03-25T12:36:50;99265.88;;;13.09;45.82
58471;BME280;44258;51.288;12.068;2023-03-25T12:39:29;99264.63;;;12.70;44.54
58471;BME280;44258;51.288;12.068;2023-03-25T12:42:10;99277.91;;;12.50;46.47
58471;BME280;44258;51.288;12.068;2023-03-25T12:44:52;99309.41;;;12.39;47.49
58471;BME280;44258;51.288;12.068;2023-03-25T12:47:23;99317.88;;;11.65;51.28
58471;BME280;44258;51.288;12.068;2023-03-25T12:50:18;99327.41;;;11.09;55.93
58471;BME280;44258;51.288;12.068;2023-03-25T12:52:55;99355.34;;;10.20;60.06
58471;BME280;44258;51.288;12.068;2023-03-25T12:55:43;99363.13;;;9.72;62.87
58471;BME280;44258;51.288;12.068;2023-03-25T12:58:33;99363.63;;;9.51;65.18
58471;BME280;44258;51.288;12.068;2023-03-25T13:01:09;99364.75;;;9.34;65.38
58471;BME280;44258;51.288;12.068;2023-03-25T13:04:09;99359.97;;;9.25;65.64
58471;BME280;44258;51.288;12.068;2023-03-25T13:06:50;99365.94;;;9.16;65.50
58471;BME280;44258;51.288;12.068;2023-03-25T13:09:25;99350.38;;;9.08;65.67
58471;BME280;44258;51.288;12.068;2023-03-25T13:11:57;99337.91;;;9.07;65.28
58471;BME280;44258;51.288;12.068;2023-03-25T13:14:28;99315.19;;;9.13;63.72
58471;BME280;44258;51.288;12.068;2023-03-25T13:17:01;99316.47;;;9.20;63.35
58471;BME280;44258;51.288;12.068;2023-03-25T13:19:32;99324.00;;;9.42;62.43
58471;BME280;44258;51.288;12.068;2023-03-25T13:22:15;99323.56;;;9.48;62.12
58471;BME280;44258;51.288;12.068;2023-03-25T13:24:46;99322.97;;;9.70;61.53
58471;BME280;44258;51.288;12.068;2023-03-25T13:27:16;99329.59;;;9.65;62.28